Time;durP1;ratioP1;P1;durP2;ratioP2;P2;SDS_P1;SDS_P2;PMS_P1;PMS_P2;Temp;Humidity;BMP_temperature;BMP_pressure;BME280_temperature;BME280_humidity;BME280_pressure;Samples;Min_cycle;Max_cycle;Signal;HPM_P1;HPM_P2
2022/11/22 00:00:37;;;;;;;8.97;8.27;;;;;;;-1.07;100.00;95281.06;5005547;28;20444;-71
2022/11/22 00:03:05;;;;;;;9.43;8.67;;;;;;;-1.07;100.00;95269.84;5030589;28;20625;-70
2022/11/22 00:05:33;;;;;;;10.37;9.37;;;;;;;-1.10;100.00;95272.75;5032110;28;20914;-71
2022/11/22 00:08:00;;;;;;;10.70;9.80;;;;;;;-1.08;100.00;95274.25;5037847;28;20199;-69
2022/11/22 00:10:29;;;;;;;10.53;9.63;;;;;;;-1.17;100.00;95267.38;4986352;28;20839;-71
2022/11/22 00:12:57;;;;;;;10.23;9.33;;;;;;;-1.11;100.00;95266.78;5031364;28;20226;-70
2022/11/22 00:15:24;;;;;;;11.33;10.03;;;;;;;-1.13;100.00;95260.09;5028391;28;20512;-71
2022/11/22 00:17:52;;;;;;;10.67;9.67;;;;;;;-1.12;100.00;95254.75;5018857;28;20732;-70
2022/11/22 00:20:20;;;;;;;10.37;9.47;;;;;;;-1.18;100.00;95247.56;5030491;28;20219;-69
2022/11/22 00:22:47;;;;;;;9.63;8.73;;;;;;;-1.17;100.00;95251.78;5034045;28;20199;-70
2022/11/22 00:25:15;;;;;;;10.33;9.53;;;;;;;-1.29;100.00;95251.28;4986317;28;20446;-70
2022/11/22 00:27:45;;;;;;;10.50;9.43;;;;;;;-1.39;100.00;95248.81;5029996;28;20440;-71
2022/11/22 00:30:12;;;;;;;10.80;9.80;;;;;;;-1.43;100.00;95267.44;5027364;28;20208;-70
2022/11/22 00:32:40;;;;;;;11.40;10.23;;;;;;;-1.51;100.00;95273.44;5018130;28;20211;-70
2022/11/22 00:35:09;;;;;;;10.63;9.53;;;;;;;-1.64;100.00;95284.25;5030709;28;20200;-70
2022/11/22 00:37:37;;;;;;;11.87;10.87;;;;;;;-1.69;100.00;95278.72;5032735;28;20232;-71
2022/11/22 00:40:06;;;;;;;10.00;9.20;;;;;;;-1.67;100.00;95271.59;5029575;28;20675;-70
2022/11/22 00:42:33;;;;;;;9.97;9.07;;;;;;;-1.61;100.00;95271.75;4984196;28;20215;-71
2022/11/22 00:45:02;;;;;;;10.07;9.07;;;;;;;-1.52;100.00;95267.44;5029784;28;20230;-72
2022/11/22 00:47:30;;;;;;;11.07;10.07;;;;;;;-1.53;100.00;95271.00;5034675;28;20226;-71
2022/11/22 00:49:57;;;;;;;10.97;9.97;;;;;;;-1.53;100.00;95265.81;5010400;28;20409;-72
2022/11/22 00:52:25;;;;;;;10.10;9.20;;;;;;;-1.48;100.00;95268.75;5033828;28;20515;-71
2022/11/22 00:54:53;;;;;;;10.27;9.47;;;;;;;-1.46;100.00;95263.41;5034161;28;20222;-70
2022/11/22 00:57:21;;;;;;;11.30;10.30;;;;;;;-1.46;100.00;95266.00;4986758;28;20258;-71
2022/11/22 00:59:49;;;;;;;10.90;9.90;;;;;;;-1.51;100.00;95257.88;5030181;28;20476;-71
2022/11/22 01:02:18;;;;;;;10.80;10.00;;;;;;;-1.57;100.00;95240.28;5012256;28;20215;-71
2022/11/22 01:04:46;;;;;;;11.30;10.30;;;;;;;-1.57;100.00;95243.72;5015507;28;20214;-71
2022/11/22 01:07:13;;;;;;;11.53;10.43;;;;;;;-1.47;100.00;95235.78;5029799;28;20223;-71
2022/11/22 01:09:41;;;;;;;11.63;10.63;;;;;;;-1.49;100.00;95254.13;5033091;28;20443;-70
2022/11/22 01:12:08;;;;;;;11.53;10.53;;;;;;;-1.64;100.00;95251.28;4986174;28;21755;-70
2022/11/22 01:14:36;;;;;;;12.53;11.33;;;;;;;-1.67;100.00;95240.41;5029324;28;20215;-71
2022/11/22 01:17:04;;;;;;;11.53;10.53;;;;;;;-1.53;100.00;95247.63;5030815;28;20860;-72
2022/11/22 01:19:32;;;;;;;11.87;10.77;;;;;;;-1.56;100.00;95239.31;5013537;28;20350;-71
2022/11/22 01:22:00;;;;;;;10.03;9.13;;;;;;;-1.59;100.00;95261.22;5027884;28;20584;-71
2022/11/22 01:24:28;;;;;;;10.87;9.83;;;;;;;-1.76;100.00;95255.94;5034091;28;20218;-70
2022/11/22 01:26:56;;;;;;;10.50;9.63;;;;;;;-1.69;100.00;95256.16;5030148;28;20243;-71
2022/11/22 01:29:23;;;;;;;11.37;10.27;;;;;;;-1.63;100.00;95255.53;4986036;28;20232;-71
2022/11/22 01:31:51;;;;;;;10.67;9.60;;;;;;;-1.57;100.00;95264.47;5029409;28;20204;-69
2022/11/22 01:34:19;;;;;;;13.03;11.83;;;;;;;-1.66;100.00;95274.00;5009280;28;20204;-71
2022/11/22 01:36:48;;;;;;;11.00;10.00;;;;;;;-1.59;100.00;95266.44;5028432;28;20537;-70
2022/11/22 01:39:16;;;;;;;12.53;11.23;;;;;;;-1.54;100.00;95261.56;5032372;28;20203;-71
2022/11/22 01:41:44;;;;;;;11.23;10.33;;;;;;;-1.58;100.00;95260.25;5027603;28;20881;-69
2022/11/22 01:44:19;;;;;;;10.97;9.97;;;;;;;-1.52;100.00;95272.63;4985603;28;22147;-71
2022/11/22 01:46:48;;;;;;;11.17;10.07;;;;;;;-1.51;100.00;95266.47;4950748;28;20765;-71
2022/11/22 01:49:23;;;;;;;12.80;10.27;;;;;;;-1.49;100.00;95269.72;5029847;28;20203;-70
2022/11/22 01:51:54;;;;;;;10.93;9.93;;;;;;;-1.50;100.00;95262.88;4985886;28;20218;-71
2022/11/22 01:54:25;;;;;;;11.60;10.60;;;;;;;-1.50;100.00;95249.09;5030579;28;20438;-70
2022/11/22 01:56:55;;;;;;;13.00;10.23;;;;;;;-1.48;100.00;95250.56;5013482;28;20234;-69
2022/11/22 01:59:25;;;;;;;10.50;9.50;;;;;;;-1.44;100.00;95252.84;5028669;28;20199;-70
2022/11/22 02:01:53;;;;;;;10.87;9.87;;;;;;;-1.51;100.00;95250.06;4985703;28;20500;-72
2022/11/22 02:04:22;;;;;;;10.73;9.70;;;;;;;-1.48;100.00;95247.94;5029072;28;20204;-69
2022/11/22 02:06:53;;;;;;;11.00;10.00;;;;;;;-1.55;100.00;95256.53;5025380;28;20327;-71
2022/11/22 02:09:22;;;;;;;11.50;10.30;;;;;;;-1.58;100.00;95260.25;5008100;28;20469;-68
2022/11/22 02:11:52;;;;;;;11.33;10.30;;;;;;;-1.59;100.00;95261.22;5008220;28;20199;-70
2022/11/22 02:14:21;;;;;;;10.37;9.57;;;;;;;-1.64;100.00;95261.69;5023845;28;20465;-68
2022/11/22 02:16:49;;;;;;;10.90;9.80;;;;;;;-1.65;100.00;95249.66;4983168;28;20616;-70
2022/11/22 02:19:22;;;;;;;11.17;10.17;;;;;;;-1.69;100.00;95255.34;5001938;28;20243;-70
2022/11/22 02:21:54;;;;;;;10.17;9.30;;;;;;;-1.71;100.00;95254.66;5028870;28;20549;-70
2022/11/22 02:24:26;;;;;;;9.80;9.00;;;;;;;-1.76;100.00;95240.38;5007216;28;20199;-70
2022/11/22 02:26:55;;;;;;;10.90;10.10;;;;;;;-1.78;100.00;95234.50;5008546;28;20235;-71
2022/11/22 02:29:22;;;;;;;10.33;9.47;;;;;;;-1.77;100.00;95227.56;5022185;28;20202;-70
2022/11/22 02:31:50;;;;;;;10.37;9.40;;;;;;;-1.84;100.00;95222.16;4977316;28;20235;-71
2022/11/22 02:34:18;;;;;;;10.50;9.50;;;;;;;-1.84;100.00;95224.75;4999813;28;20218;-70
2022/11/22 02:36:50;;;;;;;11.73;10.53;;;;;;;-1.84;100.00;95211.78;4995752;28;21149;-69
2022/11/22 02:39:20;;;;;;;11.67;10.70;;;;;;;-1.78;100.00;95211.16;5001130;28;20556;-71
2022/11/22 02:41:48;;;;;;;11.13;10.03;;;;;;;-1.80;100.00;95196.72;5003362;28;20465;-70
2022/11/22 02:44:18;;;;;;;11.50;10.47;;;;;;;-1.76;100.00;95205.81;5013421;28;20328;-72
2022/11/22 02:46:53;;;;;;;10.73;9.67;;;;;;;-1.82;100.00;95194.25;5014228;28;20856;-71
2022/11/22 02:49:23;;;;;;;11.03;10.13;;;;;;;-1.87;100.00;95209.50;5002043;28;20461;-71
2022/11/22 02:51:51;;;;;;;12.23;11.10;;;;;;;-1.96;100.00;95208.63;5017141;28;20207;-70
2022/11/22 02:54:19;;;;;;;10.20;9.30;;;;;;;-1.90;100.00;95210.59;5001213;28;23261;-69
2022/11/22 02:56:47;;;;;;;10.37;9.40;;;;;;;-1.81;100.00;95213.25;5024944;28;20470;-70
2022/11/22 02:59:15;;;;;;;12.27;11.17;;;;;;;-1.85;100.00;95220.53;4996495;28;20489;-72
2022/11/22 03:01:45;;;;;;;11.30;10.27;;;;;;;-1.91;100.00;95215.97;5031587;28;20475;-72
2022/11/22 03:04:23;;;;;;;10.20;9.30;;;;;;;-1.82;100.00;95224.59;4963187;28;22782;-71
2022/11/22 03:06:52;;;;;;;10.70;9.77;;;;;;;-1.91;100.00;95216.75;5012879;28;20747;-68
2022/11/22 03:09:20;;;;;;;11.87;10.13;;;;;;;-1.90;100.00;95228.78;5007964;28;20766;-69
2022/11/22 03:11:48;;;;;;;10.23;9.33;;;;;;;-1.84;100.00;95218.75;5028174;28;20690;-68
2022/11/22 03:14:16;;;;;;;10.63;9.63;;;;;;;-1.80;100.00;95230.47;4986780;28;20441;-68
2022/11/22 03:16:46;;;;;;;11.13;10.13;;;;;;;-1.88;100.00;95230.44;5026411;28;20811;-69
2022/11/22 03:19:14;;;;;;;10.87;9.87;;;;;;;-1.81;100.00;95236.63;4980590;28;20983;-71
2022/11/22 03:21:42;;;;;;;11.57;10.40;;;;;;;-1.78;100.00;95241.50;5006484;28;20806;-68
2022/11/22 03:24:10;;;;;;;10.93;10.10;;;;;;;-1.68;100.00;95241.41;4985696;28;20973;-71
2022/11/22 03:26:38;;;;;;;11.03;10.13;;;;;;;-1.65;100.00;95241.09;5008219;28;20235;-70
2022/11/22 03:29:06;;;;;;;11.90;10.80;;;;;;;-1.63;100.00;95249.53;5006532;28;20629;-72
2022/11/22 03:31:33;;;;;;;10.63;9.67;;;;;;;-1.47;100.00;95259.19;5009778;28;20211;-71
2022/11/22 03:34:02;;;;;;;12.10;10.90;;;;;;;-1.31;100.00;95250.63;5029577;28;20230;-72
2022/11/22 03:36:30;;;;;;;11.33;10.23;;;;;;;-1.23;100.00;95261.03;4958596;28;20258;-70
2022/11/22 03:38:58;;;;;;;11.53;10.43;;;;;;;-1.27;100.00;95249.34;5006509;28;20231;-71
2022/11/22 03:41:26;;;;;;;11.87;10.67;;;;;;;-1.18;100.00;95252.75;5010576;28;20583;-69
2022/11/22 03:43:53;;;;;;;11.57;10.37;;;;;;;-1.09;100.00;95258.78;5031028;28;20203;-69
2022/11/22 03:46:21;;;;;;;11.00;9.90;;;;;;;-0.99;100.00;95266.47;4992964;28;20243;-70
2022/11/22 03:48:49;;;;;;;11.60;10.57;;;;;;;-1.02;100.00;95263.22;5035226;28;20532;-69
2022/11/22 03:51:18;;;;;;;11.67;10.57;;;;;;;-1.08;100.00;95269.03;4980517;28;20243;-71
2022/11/22 03:53:45;;;;;;;11.73;10.73;;;;;;;-1.08;100.00;95263.84;4957239;28;20768;-71
2022/11/22 03:56:13;;;;;;;11.43;10.43;;;;;;;-0.95;100.00;95259.97;4989089;28;20242;-71
2022/11/22 03:58:40;;;;;;;11.17;10.23;;;;;;;-0.94;100.00;95256.41;5020827;28;20445;-70
2022/11/22 04:01:08;;;;;;;11.10;10.10;;;;;;;-0.84;100.00;95264.06;5012595;28;20207;-72
2022/11/22 04:03:42;;;;;;;11.33;10.10;;;;;;;-0.75;100.00;95265.69;5011318;28;20211;-71
2022/11/22 04:06:10;;;;;;;11.77;10.77;;;;;;;-0.75;100.00;95265.69;5027259;28;20224;-71
2022/11/22 04:08:39;;;;;;;11.40;10.30;;;;;;;-0.71;100.00;95268.78;4985541;28;21935;-70
2022/11/22 04:11:07;;;;;;;10.77;9.87;;;;;;;-0.61;100.00;95266.84;5033604;28;20214;-71
2022/11/22 04:16:20;;;;;;;10.93;9.77;;;;;;;-0.75;100.00;95269.13;5024812;28;20228;-69
2022/11/22 04:18:48;;;;;;;10.57;9.57;;;;;;;-0.72;100.00;95278.38;4999107;28;20663;-70
2022/11/22 04:21:33;;;;;;;9.03;8.23;;;;;;;-0.61;100.00;95277.25;5033442;28;20369;-69
2022/11/22 04:26:48;;;;;;;8.77;8.07;;;;;;;-0.40;100.00;95276.78;5029384;28;20227;-71
2022/11/22 04:29:16;;;;;;;8.50;7.80;;;;;;;-0.26;100.00;95288.31;5011968;28;20207;-70
2022/11/22 04:34:29;;;;;;;8.70;7.90;;;;;;;-0.29;100.00;95291.25;5010179;28;20216;-72
2022/11/22 04:36:57;;;;;;;9.00;8.03;;;;;;;-0.27;100.00;95294.50;5030342;28;20640;-71
2022/11/22 04:39:25;;;;;;;8.73;8.00;;;;;;;-0.21;100.00;95285.22;4988266;28;20223;-73
2022/11/22 04:44:42;;;;;;;9.37;8.47;;;;;;;-0.34;100.00;95286.53;5019490;28;20234;-70
2022/11/22 04:47:10;;;;;;;8.47;7.77;;;;;;;-0.26;100.00;95282.28;5002968;28;20793;-72
2022/11/22 04:49:37;;;;;;;8.93;7.90;;;;;;;-0.32;100.00;95281.97;5015606;28;20535;-71
2022/11/22 04:54:52;;;;;;;8.13;7.40;;;;;;;-0.34;100.00;95276.13;4994577;28;20226;-70
2022/11/22 04:57:20;;;;;;;9.07;8.07;;;;;;;-0.17;100.00;95270.94;5030881;28;20619;-72
2022/11/22 04:59:48;;;;;;;8.43;7.63;;;;;;;-0.22;100.00;95265.38;5019826;28;20223;-72
2022/11/22 05:02:15;;;;;;;8.70;7.77;;;;;;;-0.27;100.00;95275.47;5010395;28;20207;-72
2022/11/22 05:04:43;;;;;;;9.97;8.97;;;;;;;-0.30;100.00;95267.00;5019950;28;20503;-70
2022/11/22 05:07:17;;;;;;;10.30;9.30;;;;;;;-0.28;100.00;95261.66;5023568;28;20223;-70
2022/11/22 05:09:45;;;;;;;8.87;8.07;;;;;;;-0.30;100.00;95269.59;5024274;28;20258;-71
2022/11/22 05:12:14;;;;;;;11.50;9.60;;;;;;;-0.26;100.00;95272.72;4987971;28;20220;-70
2022/11/22 05:14:41;;;;;;;8.37;7.67;;;;;;;-0.10;100.00;95268.47;5027716;28;20802;-72
2022/11/22 05:17:09;;;;;;;8.73;7.93;;;;;;;-0.18;100.00;95269.31;5012610;28;20234;-70
2022/11/22 05:19:40;;;;;;;10.07;9.17;;;;;;;-0.12;100.00;95273.84;4998706;28;20709;-71
2022/11/22 05:22:15;;;;;;;10.57;8.93;;;;;;;-0.09;100.00;95278.72;5028686;28;20203;-69
2022/11/22 05:24:42;;;;;;;10.40;9.23;;;;;;;-0.10;100.00;95271.88;5033406;28;20443;-72
2022/11/22 05:27:09;;;;;;;9.77;8.70;;;;;;;-0.16;100.00;95267.34;4983641;28;20481;-71
2022/11/22 05:29:38;;;;;;;10.10;9.10;;;;;;;-0.09;100.00;95272.69;5030830;28;20570;-72
2022/11/22 05:32:06;;;;;;;9.90;9.07;;;;;;;-0.02;100.00;95263.22;5006836;28;20212;-73
2022/11/22 05:34:33;;;;;;;9.70;8.80;;;;;;;0.10;100.00;95272.34;5004806;28;20686;-71
2022/11/22 05:37:01;;;;;;;11.43;10.00;;;;;;;0.05;100.00;95268.59;4979772;28;20256;-69
2022/11/22 05:39:29;;;;;;;10.57;9.57;;;;;;;0.13;100.00;95269.41;5032303;28;20234;-71
2022/11/22 05:41:57;;;;;;;9.33;8.30;;;;;;;0.21;100.00;95272.97;4962316;28;20305;-70
2022/11/22 05:44:24;;;;;;;9.47;8.57;;;;;;;0.14;100.00;95273.63;5028117;28;20203;-71
2022/11/22 05:46:54;;;;;;;10.10;9.20;;;;;;;0.16;100.00;95264.84;5018563;28;20567;-70
2022/11/22 05:49:21;;;;;;;10.30;9.33;;;;;;;0.19;100.00;95269.72;5003811;28;20203;-72
2022/11/22 05:51:49;;;;;;;11.13;8.30;;;;;;;0.28;100.00;95269.53;5007433;28;20632;-69
2022/11/22 05:54:17;;;;;;;8.90;8.00;;;;;;;0.31;100.00;95273.59;5002442;28;20887;-71
2022/11/22 05:56:46;;;;;;;9.63;8.77;;;;;;;0.27;100.00;95270.53;5007207;28;20720;-69
2022/11/22 05:59:14;;;;;;;9.57;8.27;;;;;;;0.31;100.00;95276.19;4988279;28;20425;-71
2022/11/22 06:01:42;;;;;;;8.80;8.10;;;;;;;0.36;100.00;95286.13;4950656;28;20219;-71
2022/11/22 06:04:11;;;;;;;9.50;7.87;;;;;;;0.17;100.00;95298.53;5028408;28;20266;-70
2022/11/22 06:06:38;;;;;;;9.27;8.33;;;;;;;0.23;100.00;95271.84;5033575;28;20235;-71
2022/11/22 06:09:06;;;;;;;9.47;8.60;;;;;;;0.03;100.00;95284.41;5028743;28;20291;-70
2022/11/22 06:11:34;;;;;;;8.40;7.67;;;;;;;0.12;100.00;95291.22;5029264;28;20353;-71
2022/11/22 06:14:02;;;;;;;9.77;8.97;;;;;;;0.15;100.00;95292.66;5019700;28;20207;-70
2022/11/22 06:16:33;;;;;;;8.93;8.17;;;;;;;0.07;100.00;95290.91;4980934;28;20591;-69
2022/11/22 06:19:01;;;;;;;9.63;8.73;;;;;;;0.08;100.00;95297.75;5007382;28;20230;-70
2022/11/22 06:21:29;;;;;;;10.50;9.37;;;;;;;0.07;100.00;95296.13;5022880;28;20226;-69
2022/11/22 06:23:57;;;;;;;10.33;9.27;;;;;;;0.13;100.00;95305.03;5031028;28;20650;-70
2022/11/22 06:26:25;;;;;;;9.60;8.80;;;;;;;0.13;100.00;95312.84;5027254;28;20223;-70
2022/11/22 06:28:54;;;;;;;8.53;7.73;;;;;;;0.10;100.00;95311.41;5031924;28;20797;-71
2022/11/22 06:31:26;;;;;;;9.27;8.47;;;;;;;0.12;100.00;95308.63;5002175;28;20691;-67
2022/11/22 06:33:55;;;;;;;8.83;8.03;;;;;;;0.16;100.00;95317.72;5002688;28;20215;-72
2022/11/22 06:36:24;;;;;;;10.57;9.57;;;;;;;0.11;100.00;95314.81;5022924;28;20519;-70
2022/11/22 06:38:53;;;;;;;10.60;9.70;;;;;;;0.12;100.00;95317.28;5030824;28;20210;-72
2022/11/22 06:41:22;;;;;;;10.33;9.30;;;;;;;0.18;100.00;95318.38;5029786;28;20595;-70
2022/11/22 06:43:51;;;;;;;10.07;8.93;;;;;;;0.20;100.00;95326.03;5029362;28;20412;-71
2022/11/22 06:46:21;;;;;;;9.47;8.67;;;;;;;0.22;100.00;95318.88;5027450;28;20223;-69
2022/11/22 06:48:49;;;;;;;9.93;9.07;;;;;;;0.21;100.00;95322.47;4979162;28;20354;-71
2022/11/22 06:51:18;;;;;;;12.10;9.63;;;;;;;0.23;100.00;95326.53;5004658;28;20844;-69
2022/11/22 06:53:47;;;;;;;9.80;8.77;;;;;;;0.44;100.00;95319.97;5029756;28;20337;-71
2022/11/22 06:56:19;;;;;;;10.57;9.57;;;;;;;0.40;100.00;95329.94;5030358;28;20587;-68
2022/11/22 06:58:47;;;;;;;10.90;9.97;;;;;;;0.46;100.00;95327.63;5027749;28;20397;-70
2022/11/22 07:01:17;;;;;;;10.77;9.80;;;;;;;0.47;100.00;95322.25;5029600;28;20242;-69
2022/11/22 07:03:45;;;;;;;14.37;10.53;;;;;;;0.49;100.00;95322.88;4977611;28;25620;-71
2022/11/22 07:06:14;;;;;;;12.17;10.97;;;;;;;0.59;100.00;95332.34;5005325;28;20678;-70
2022/11/22 07:08:42;;;;;;;11.93;10.77;;;;;;;0.59;100.00;95343.56;5026922;28;20208;-70
2022/11/22 07:11:11;;;;;;;11.20;10.17;;;;;;;0.59;100.00;95334.94;5005152;28;20203;-69
2022/11/22 07:13:40;;;;;;;11.80;10.80;;;;;;;0.54;100.00;95336.22;5029203;28;21590;-69
2022/11/22 07:16:10;;;;;;;11.07;10.17;;;;;;;0.57;100.00;95350.72;5030563;28;20950;-68
2022/11/22 07:18:38;;;;;;;11.87;10.67;;;;;;;0.56;100.00;95357.72;5029397;28;20681;-70
2022/11/22 07:21:06;;;;;;;10.73;9.83;;;;;;;0.53;100.00;95357.25;4979221;28;20718;-71
2022/11/22 07:23:40;;;;;;;12.00;10.80;;;;;;;0.51;100.00;95367.03;5021155;28;20214;-71
2022/11/22 07:26:08;;;;;;;10.23;9.17;;;;;;;0.55;100.00;95370.94;5033805;28;20227;-69
2022/11/22 07:28:36;;;;;;;11.23;10.33;;;;;;;0.66;100.00;95388.03;5032919;28;20220;-71
2022/11/22 07:31:08;;;;;;;12.17;10.80;;;;;;;0.67;100.00;95385.25;5031334;28;20203;-72
2022/11/22 07:33:36;;;;;;;10.67;9.67;;;;;;;0.61;100.00;95383.31;5032191;28;20210;-70
2022/11/22 07:36:04;;;;;;;11.53;10.33;;;;;;;0.60;100.00;95384.28;4981172;28;20254;-71
2022/11/22 07:38:32;;;;;;;11.77;10.67;;;;;;;0.56;100.00;95390.81;5008631;28;20398;-73
2022/11/22 07:41:00;;;;;;;12.47;11.27;;;;;;;0.63;100.00;95393.56;5033338;28;20222;-71
2022/11/22 07:43:28;;;;;;;12.27;11.13;;;;;;;0.78;100.00;95398.91;5028718;28;21108;-71
2022/11/22 07:45:58;;;;;;;13.27;11.90;;;;;;;0.72;100.00;95395.97;5029808;28;20248;-69
2022/11/22 07:48:27;;;;;;;12.60;10.43;;;;;;;0.76;100.00;95395.63;5029044;28;20195;-69
2022/11/22 07:50:55;;;;;;;11.70;10.60;;;;;;;0.85;100.00;95395.47;5030551;28;20205;-72
2022/11/22 07:53:22;;;;;;;12.33;11.23;;;;;;;0.93;100.00;95380.75;4960008;28;20215;-70
2022/11/22 07:55:50;;;;;;;13.63;12.27;;;;;;;0.95;100.00;95377.03;5035491;28;20251;-72
2022/11/22 07:58:18;;;;;;;15.37;13.80;;;;;;;0.94;100.00;95396.25;5030011;28;20430;-69
2022/11/22 08:00:45;;;;;;;12.63;11.53;;;;;;;0.93;100.00;95393.81;5033293;28;20231;-71
2022/11/22 08:03:13;;;;;;;13.90;12.50;;;;;;;1.04;100.00;95406.50;5032531;28;20278;-70
2022/11/22 08:05:46;;;;;;;13.17;11.87;;;;;;;1.05;100.00;95413.34;5030271;28;20596;-69
2022/11/22 08:08:13;;;;;;;14.20;12.00;;;;;;;1.13;100.00;95415.09;4979692;28;20689;-72
2022/11/22 08:10:41;;;;;;;12.57;10.97;;;;;;;0.94;100.00;95418.91;5011168;28;20211;-72
2022/11/22 08:13:08;;;;;;;12.37;11.17;;;;;;;0.92;100.00;95408.66;5020625;28;20211;-71
2022/11/22 08:15:36;;;;;;;13.73;12.53;;;;;;;0.98;100.00;95413.19;5007372;28;20303;-71
2022/11/22 08:18:03;;;;;;;16.57;14.97;;;;;;;1.07;100.00;95407.94;5003593;28;21475;-70
2022/11/22 08:20:31;;;;;;;12.20;11.00;;;;;;;1.05;100.00;95412.53;5032980;28;20230;-72
2022/11/22 08:23:05;;;;;;;12.10;11.07;;;;;;;1.10;100.00;95411.03;4997788;28;20692;-70
2022/11/22 08:25:33;;;;;;;12.47;9.93;;;;;;;1.19;100.00;95419.66;5029712;28;20674;-72
2022/11/22 08:28:00;;;;;;;11.93;10.93;;;;;;;1.23;100.00;95422.72;5031354;28;20200;-69
2022/11/22 08:30:28;;;;;;;12.23;10.90;;;;;;;1.27;100.00;95427.44;5008738;28;20212;-72
2022/11/22 08:32:56;;;;;;;11.20;10.13;;;;;;;1.38;100.00;95430.66;5022610;28;20734;-70
2022/11/22 08:35:23;;;;;;;13.80;11.77;;;;;;;1.41;100.00;95431.16;5023499;28;20782;-73
2022/11/22 08:37:55;;;;;;;11.37;10.27;;;;;;;1.52;100.00;95432.59;5027823;28;20227;-70
2022/11/22 08:40:24;;;;;;;13.80;11.27;;;;;;;1.48;100.00;95435.69;4982804;28;20211;-72
2022/11/22 08:42:54;;;;;;;11.27;10.30;;;;;;;1.51;100.00;95443.19;5031321;28;20203;-68
2022/11/22 08:45:22;;;;;;;11.77;10.33;;;;;;;1.55;100.00;95453.13;5007283;28;20219;-69
2022/11/22 08:47:51;;;;;;;11.03;10.03;;;;;;;1.61;100.00;95449.00;5031032;28;20227;-70
2022/11/22 08:50:19;;;;;;;12.17;11.00;;;;;;;1.62;100.00;95455.03;5013798;28;20227;-71
2022/11/22 08:52:46;;;;;;;11.80;10.77;;;;;;;1.63;100.00;95454.06;5027621;28;20207;-73
2022/11/22 08:55:14;;;;;;;11.70;10.60;;;;;;;1.60;100.00;95457.81;4982899;28;20333;-72
2022/11/22 08:57:43;;;;;;;11.90;10.97;;;;;;;1.58;100.00;95459.78;5031783;28;20698;-70
2022/11/22 09:00:12;;;;;;;11.17;10.10;;;;;;;1.57;100.00;95460.78;5028727;28;20425;-69
2022/11/22 09:02:39;;;;;;;12.93;11.17;;;;;;;1.47;100.00;95468.00;5009590;28;20235;-72
2022/11/22 09:05:08;;;;;;;11.43;10.33;;;;;;;1.50;100.00;95465.03;5007172;28;20204;-70
2022/11/22 09:07:36;;;;;;;11.83;10.73;;;;;;;1.55;100.00;95479.22;5030165;28;20230;-70
2022/11/22 09:10:23;;;;;;;12.17;11.07;;;;;;;1.53;100.00;95475.16;4979241;28;21505;-70
2022/11/22 09:12:52;;;;;;;11.43;10.33;;;;;;;1.48;100.00;95474.84;5031574;28;20206;-68
2022/11/22 09:15:20;;;;;;;12.67;11.40;;;;;;;1.53;100.00;95472.53;5027813;28;20299;-70
2022/11/22 09:17:48;;;;;;;11.77;10.80;;;;;;;1.67;100.00;95471.00;5010962;28;20223;-70
2022/11/22 09:20:16;;;;;;;13.70;12.43;;;;;;;1.82;100.00;95469.28;5006411;28;22347;-70
2022/11/22 09:22:44;;;;;;;13.10;11.90;;;;;;;1.80;100.00;95471.25;5026035;28;20223;-72
2022/11/22 09:25:11;;;;;;;12.87;11.63;;;;;;;1.85;100.00;95476.78;5025038;28;20340;-72
2022/11/22 09:27:39;;;;;;;14.07;12.60;;;;;;;1.72;100.00;95472.13;4983039;28;20621;-70
2022/11/22 09:30:10;;;;;;;13.10;11.90;;;;;;;1.68;100.00;95475.25;5028409;28;20211;-71
2022/11/22 09:32:37;;;;;;;12.47;11.27;;;;;;;1.70;100.00;95484.53;5007082;28;20215;-69
2022/11/22 09:35:05;;;;;;;12.20;11.00;;;;;;;1.72;100.00;95482.59;5026415;28;20588;-69
2022/11/22 09:37:33;;;;;;;13.77;12.00;;;;;;;1.70;100.00;95491.56;5006180;28;20238;-70
2022/11/22 09:40:01;;;;;;;12.60;11.53;;;;;;;1.73;100.00;95489.44;5033217;28;20215;-70
2022/11/22 09:42:44;;;;;;;13.13;11.93;;;;;;;1.66;100.00;95485.84;4980684;28;20232;-71
2022/11/22 09:45:40;;;;;;;12.73;11.53;;;;;;;1.78;100.00;95488.09;5024598;28;20204;-71
2022/11/22 09:48:18;;;;;;;13.47;12.20;;;;;;;1.79;100.00;95485.31;4983900;28;20204;-71
2022/11/22 09:50:50;;;;;;;12.87;11.57;;;;;;;1.97;100.00;95486.88;5029608;28;20195;-69
2022/11/22 09:53:21;;;;;;;12.80;11.60;;;;;;;1.99;100.00;95480.47;5013508;28;20326;-71
2022/11/22 09:55:53;;;;;;;12.73;11.53;;;;;;;1.94;100.00;95482.00;5031488;28;20234;-69
2022/11/22 09:58:27;;;;;;;13.53;12.13;;;;;;;2.07;100.00;95482.22;5003623;28;20836;-71
2022/11/22 10:00:58;;;;;;;12.87;11.57;;;;;;;2.17;100.00;95488.03;5030846;28;20512;-69
2022/11/22 10:03:29;;;;;;;12.73;11.53;;;;;;;2.17;100.00;95485.41;5007833;28;21136;-71
2022/11/22 10:05:59;;;;;;;12.50;11.33;;;;;;;2.23;100.00;95496.16;5029260;28;20223;-70
2022/11/22 10:08:35;;;;;;;13.13;11.83;;;;;;;2.20;100.00;95493.91;5012399;28;21210;-72
2022/11/22 10:11:10;;;;;;;12.27;11.07;;;;;;;2.22;100.00;95495.38;4985581;28;20603;-69
2022/11/22 10:13:43;;;;;;;12.30;11.20;;;;;;;2.21;100.00;95498.13;5030015;28;20699;-72
2022/11/22 10:16:16;;;;;;;12.37;11.27;;;;;;;2.29;100.00;95496.28;4972882;28;20651;-71
2022/11/22 10:18:46;;;;;;;14.80;13.33;;;;;;;2.38;100.00;95496.22;5027916;28;20207;-70
2022/11/22 10:21:14;;;;;;;14.17;12.77;;;;;;;2.41;100.00;95493.28;5028596;28;20226;-71
2022/11/22 10:23:42;;;;;;;12.83;11.73;;;;;;;2.45;100.00;95499.78;5005956;28;20208;-69
2022/11/22 10:26:20;;;;;;;13.07;11.97;;;;;;;2.50;100.00;95494.03;5029666;28;20230;-71
2022/11/22 10:28:53;;;;;;;12.30;11.30;;;;;;;2.54;100.00;95498.75;5003894;28;20416;-69
2022/11/22 10:31:26;;;;;;;12.30;11.30;;;;;;;2.65;100.00;95515.84;4979323;28;20212;-71
2022/11/22 10:34:00;;;;;;;13.03;11.93;;;;;;;2.73;100.00;95513.16;5027319;28;20425;-69
2022/11/22 10:36:33;;;;;;;12.23;11.07;;;;;;;2.78;100.00;95512.59;5027099;28;20234;-72
2022/11/22 10:39:17;;;;;;;12.57;11.30;;;;;;;2.89;100.00;95506.13;5027897;28;20200;-72
2022/11/22 10:41:54;;;;;;;12.53;11.43;;;;;;;2.86;100.00;95511.72;5026107;28;20290;-69
2022/11/22 10:44:31;;;;;;;11.43;10.33;;;;;;;2.93;100.00;95509.22;5008995;28;20207;-71
2022/11/22 10:47:09;;;;;;;12.10;11.00;;;;;;;3.02;100.00;95501.09;4975254;28;21231;-71
2022/11/22 10:49:45;;;;;;;11.93;10.93;;;;;;;3.00;100.00;95505.69;5026226;28;20237;-70
2022/11/22 10:52:22;;;;;;;11.80;10.70;;;;;;;3.10;100.00;95497.59;5021928;28;20590;-72
2022/11/22 10:54:56;;;;;;;11.80;10.77;;;;;;;3.15;100.00;95503.13;5026790;28;20868;-72
2022/11/22 10:57:29;;;;;;;12.00;11.00;;;;;;;3.19;100.00;95514.84;5030826;28;20303;-72
2022/11/22 11:00:05;;;;;;;11.20;10.07;;;;;;;3.20;100.00;95513.06;5004972;28;20756;-71
2022/11/22 11:02:52;;;;;;;12.23;11.13;;;;;;;3.30;100.00;95515.41;4978697;28;20460;-70
2022/11/22 11:05:25;;;;;;;10.90;9.50;;;;;;;3.25;100.00;95523.00;5029178;28;20203;-71
2022/11/22 11:07:53;;;;;;;12.20;11.03;;;;;;;3.43;100.00;95523.47;5025437;28;20349;-72
2022/11/22 11:10:36;;;;;;;10.67;9.77;;;;;;;3.42;100.00;95518.41;5031493;28;20200;-69
2022/11/22 11:13:07;;;;;;;12.03;10.87;;;;;;;3.38;100.00;95530.22;5031708;28;20475;-72
2022/11/22 11:15:38;;;;;;;11.07;10.20;;;;;;;3.35;100.00;95526.16;5022109;28;20673;-70
2022/11/22 11:18:12;;;;;;;10.70;9.63;;;;;;;3.35;100.00;95520.09;4972096;28;20602;-70
2022/11/22 11:20:42;;;;;;;12.87;11.57;;;;;;;3.39;100.00;95516.13;5028697;28;20211;-69
2022/11/22 11:23:10;;;;;;;10.90;10.00;;;;;;;3.32;100.00;95516.84;5028708;28;20764;-72
2022/11/22 11:25:43;;;;;;;12.77;10.83;;;;;;;3.29;100.00;95511.19;5002367;28;20214;-70
2022/11/22 11:28:17;;;;;;;11.70;10.63;;;;;;;3.32;100.00;95516.84;5030764;28;20207;-71
2022/11/22 11:30:47;;;;;;;11.77;10.60;;;;;;;3.40;100.00;95508.09;5005503;28;20215;-69
2022/11/22 11:33:38;;;;;;;12.20;11.20;;;;;;;3.43;100.00;95509.56;5030382;28;20702;-71
2022/11/22 11:36:08;;;;;;;11.63;10.70;;;;;;;3.35;100.00;95501.78;5001699;28;20228;-71
2022/11/22 11:38:37;;;;;;;11.90;10.93;;;;;;;3.35;100.00;95515.69;5027749;28;20416;-70
2022/11/22 11:41:21;;;;;;;11.33;10.33;;;;;;;3.45;100.00;95511.00;5004322;28;20238;-72
2022/11/22 11:43:49;;;;;;;11.83;10.83;;;;;;;3.47;100.00;95508.22;5025032;28;20412;-70